Time;durP1;ratioP1;P1;durP2;ratioP2;P2;SDS_P1;SDS_P2;PMS_P1;PMS_P2;Temp;Humidity;BMP_temperature;BMP_pressure;BME280_temperature;BME280_humidity;BME280_pressure;Samples;Min_cycle;Max_cycle;Signal;HPM_P1;HPM_P2
2022/07/31 00:00:21;;;;;;;8.15;2.92;;;18.00;99.90;;;;;;5070097;28;20285;-50
2022/07/31 00:02:47;;;;;;;5.68;2.70;;;20.40;99.90;;;;;;5071432;28;20036;-48
2022/07/31 00:05:13;;;;;;;8.02;3.00;;;20.70;99.90;;;;;;5071390;28;20078;-52
2022/07/31 00:07:39;;;;;;;5.15;2.50;;;19.70;99.90;;;;;;5071451;28;20024;-47
2022/07/31 00:10:05;;;;;;;6.50;2.75;;;18.00;99.90;;;;;;5071346;28;20029;-47
2022/07/31 00:12:33;;;;;;;6.18;2.75;;;16.40;99.90;;;;;;5071456;28;20523;-46
2022/07/31 00:15:00;;;;;;;5.72;2.70;;;20.10;99.90;;;;;;5071660;28;20028;-52
2022/07/31 00:17:26;;;;;;;4.80;2.60;;;;;;;;;;5071026;28;20036;-50
2022/07/31 00:19:52;;;;;;;4.97;2.65;;;19.80;99.90;;;;;;5071127;28;20158;-47
2022/07/31 00:22:18;;;;;;;6.88;2.80;;;16.80;99.90;;;;;;5067247;28;20103;-52
2022/07/31 00:24:43;;;;;;;10.55;2.83;;;17.10;99.90;;;;;;5071117;28;20052;-49
2022/07/31 00:27:09;;;;;;;6.07;3.17;;;19.40;99.90;;;;;;5071123;28;20385;-52
2022/07/31 00:29:36;;;;;;;7.72;2.78;;;18.20;99.90;;;;;;5071210;28;20500;-47
2022/07/31 00:32:02;;;;;;;5.88;2.92;;;18.60;99.90;;;;;;5071057;28;20044;-50
2022/07/31 00:34:28;;;;;;;6.38;2.90;;;;;;;;;;5070850;28;20017;-48
2022/07/31 00:36:54;;;;;;;5.63;3.45;;;16.80;99.90;;;;;;5071103;28;20031;-48
2022/07/31 00:39:20;;;;;;;6.43;3.20;;;;;;;;;;5056845;28;20075;-52
2022/07/31 00:41:46;;;;;;;4.50;2.70;;;17.70;99.90;;;;;;5057724;28;20036;-48
2022/07/31 00:44:13;;;;;;;5.45;2.85;;;18.30;99.90;;;;;;5071176;28;20064;-51
2022/07/31 00:46:40;;;;;;;6.72;3.05;;;16.50;99.90;;;;;;5070819;28;20056;-46
2022/07/31 00:49:07;;;;;;;7.63;3.13;;;18.40;99.90;;;;;;5070818;28;20033;-50
2022/07/31 00:51:33;;;;;;;8.35;2.90;;;17.60;99.90;;;;;;5070711;28;20389;-47
2022/07/31 00:53:59;;;;;;;6.05;2.97;;;17.50;99.90;;;;;;5070946;28;20025;-46
2022/07/31 00:56:24;;;;;;;5.55;2.90;;;19.20;99.90;;;;;;5070927;28;20031;-46
2022/07/31 00:58:51;;;;;;;7.50;2.92;;;18.90;99.90;;;;;;5069782;28;20028;-47
2022/07/31 01:01:16;;;;;;;6.35;2.78;;;19.10;99.90;;;;;;5075045;28;20036;-47
2022/07/31 01:03:42;;;;;;;10.48;3.28;;;20.10;99.90;;;;;;5074933;28;20032;-49
2022/07/31 01:06:08;;;;;;;6.38;3.00;;;18.20;99.90;;;;;;5074920;28;20436;-49
2022/07/31 01:08:34;;;;;;;5.57;2.95;;;19.10;99.90;;;;;;5074972;28;20029;-48
2022/07/31 01:11:16;;;;;;;5.07;2.95;;;18.60;99.90;;;;;;5075063;28;20107;-47
2022/07/31 01:13:51;;;;;;;5.63;2.60;;;20.10;99.90;;;;;;5074699;28;20499;-47
2022/07/31 01:16:17;;;;;;;9.85;4.25;;;18.10;99.90;;;;;;5074711;28;20025;-47
2022/07/31 01:18:45;;;;;;;6.13;3.22;;;19.20;99.90;;;;;;5074269;28;20036;-47
2022/07/31 01:21:18;;;;;;;7.45;3.83;;;18.20;99.90;;;;;;5074787;28;20041;-53
2022/07/31 01:23:44;;;;;;;8.02;3.20;;;19.10;99.90;;;;;;5071181;28;20035;-57
2022/07/31 01:26:31;;;;;;;6.70;3.10;;;18.70;99.90;;;;;;5074609;28;20095;-47
2022/07/31 01:29:03;;;;;;;6.93;3.08;;;18.20;99.90;;;;;;5074339;28;20035;-48
2022/07/31 01:31:43;;;;;;;8.85;3.60;;;18.60;99.90;;;;;;5074371;28;20080;-47
2022/07/31 01:34:24;;;;;;;7.55;3.25;;;18.40;99.90;;;;;;5074435;28;20111;-55
2022/07/31 01:37:07;;;;;;;11.35;3.05;;;18.80;99.90;;;;;;5074288;28;20520;-54
2022/07/31 01:39:34;;;;;;;6.53;3.50;;;19.80;99.90;;;;;;5059911;28;20032;-46
2022/07/31 01:42:05;;;;;;;6.15;3.78;;;18.30;99.90;;;;;;5074080;28;20036;-46
2022/07/31 01:44:37;;;;;;;6.13;3.50;;;18.10;99.90;;;;;;5073980;28;20024;-49
2022/07/31 01:47:04;;;;;;;10.45;4.03;;;18.70;99.90;;;;;;5073832;28;20063;-49
2022/07/31 01:49:31;;;;;;;7.15;3.90;;;16.50;99.90;;;;;;5074120;28;20027;-47
2022/07/31 01:51:58;;;;;;;8.30;3.50;;;17.40;99.90;;;;;;5073765;28;20119;-50
2022/07/31 01:54:26;;;;;;;9.27;3.85;;;17.90;99.90;;;;;;5074200;28;20103;-48
2022/07/31 01:56:52;;;;;;;10.45;4.00;;;17.90;99.90;;;;;;5073966;28;20064;-48
2022/07/31 01:59:19;;;;;;;7.95;4.13;;;17.90;99.90;;;;;;5074132;28;20060;-51
2022/07/31 02:01:45;;;;;;;9.10;4.47;;;18.10;99.90;;;;;;5072426;28;20031;-50
2022/07/31 02:04:13;;;;;;;7.47;3.03;;;17.40;99.90;;;;;;5073953;28;20399;-53
2022/07/31 02:06:39;;;;;;;6.68;4.05;;;18.40;99.90;;;;;;5073621;28;20028;-50
2022/07/31 02:09:05;;;;;;;8.63;3.70;;;17.90;99.90;;;;;;5073657;28;20402;-49
2022/07/31 02:11:31;;;;;;;6.05;3.40;;;18.50;99.90;;;;;;5072080;28;20097;-48
2022/07/31 02:13:59;;;;;;;8.52;3.90;;;17.00;99.90;;;;;;5073571;28;20498;-49
2022/07/31 02:16:26;;;;;;;10.40;4.32;;;18.40;99.90;;;;;;5073732;28;20027;-49
2022/07/31 02:18:54;;;;;;;9.60;3.90;;;16.70;99.90;;;;;;5073441;28;20082;-55
2022/07/31 02:21:20;;;;;;;8.93;3.97;;;17.40;99.90;;;;;;5073165;28;20037;-49
2022/07/31 02:23:45;;;;;;;8.05;3.80;;;18.40;99.90;;;;;;5073356;28;20081;-53
2022/07/31 02:26:14;;;;;;;7.93;3.75;;;19.40;99.90;;;;;;5073478;28;20024;-50
2022/07/31 02:28:42;;;;;;;7.60;4.10;;;17.90;99.90;;;;;;5073412;28;20490;-54
2022/07/31 02:31:10;;;;;;;7.22;4.03;;;18.50;99.90;;;;;;5072959;28;20281;-47
2022/07/31 02:33:38;;;;;;;9.00;4.15;;;17.20;99.90;;;;;;5073308;28;20029;-52
2022/07/31 02:36:06;;;;;;;14.95;4.60;;;17.40;99.90;;;;;;5073075;28;20021;-49
2022/07/31 02:38:34;;;;;;;11.68;4.43;;;17.90;99.90;;;;;;5066313;28;20104;-53
2022/07/31 02:41:03;;;;;;;9.57;4.10;;;17.40;99.90;;;;;;5066093;28;20109;-50
2022/07/31 02:43:31;;;;;;;12.48;4.15;;;18.80;99.90;;;;;;5073124;28;20033;-49
2022/07/31 02:45:57;;;;;;;10.15;4.43;;;18.00;99.90;;;;;;5073147;28;20020;-55
2022/07/31 02:48:24;;;;;;;8.70;4.47;;;17.20;99.90;;;;;;5072798;28;20085;-49
2022/07/31 02:50:51;;;;;;;9.05;4.53;;;18.40;99.90;;;;;;5072862;28;20043;-46
2022/07/31 02:53:17;;;;;;;9.93;4.47;;;17.70;99.90;;;;;;5072926;28;20098;-52
2022/07/31 02:55:44;;;;;;;11.00;4.93;;;18.50;99.90;;;;;;5072882;28;20521;-52
2022/07/31 02:58:10;;;;;;;8.13;4.40;;;18.50;99.90;;;;;;5072672;28;20024;-49
2022/07/31 03:00:36;;;;;;;9.93;5.13;;;17.50;99.90;;;;;;5073036;28;20115;-53
2022/07/31 03:03:03;;;;;;;9.02;5.00;;;17.70;99.90;;;;;;5072424;28;20119;-47
2022/07/31 03:05:30;;;;;;;11.65;5.10;;;18.00;99.90;;;;;;5072576;28;20017;-48
2022/07/31 03:07:55;;;;;;;15.00;5.47;;;18.30;99.90;;;;;;5064162;28;20036;-54
2022/07/31 03:10:21;;;;;;;10.85;5.15;;;18.10;99.90;;;;;;5072155;28;20038;-48
2022/07/31 03:12:50;;;;;;;12.05;5.38;;;18.20;99.90;;;;;;5072029;28;20074;-51
2022/07/31 03:15:26;;;;;;;10.20;5.15;;;18.30;99.90;;;;;;5072487;28;20028;-51
2022/07/31 03:17:53;;;;;;;10.52;5.30;;;17.80;99.90;;;;;;5059713;28;20033;-51
2022/07/31 03:20:19;;;;;;;12.10;5.43;;;18.40;99.90;;;;;;5072199;28;20029;-50
2022/07/31 03:22:45;;;;;;;10.43;4.85;;;19.30;99.90;;;;;;5071959;28;20548;-55
2022/07/31 03:25:11;;;;;;;10.77;4.88;;;18.30;99.90;;;;;;5072247;28;20047;-58
2022/07/31 03:27:37;;;;;;;9.30;4.93;;;18.50;99.90;;;;;;5071977;28;20475;-53
2022/07/31 03:30:05;;;;;;;8.00;4.57;;;17.90;99.90;;;;;;5071765;28;20344;-51
2022/07/31 03:32:31;;;;;;;9.23;4.50;;;17.80;99.90;;;;;;5071819;28;20040;-52
2022/07/31 03:34:56;;;;;;;13.70;5.07;;;19.20;99.90;;;;;;5072294;28;20028;-49
2022/07/31 03:37:22;;;;;;;9.00;4.32;;;18.40;99.90;;;;;;5072113;28;20038;-46
2022/07/31 03:39:48;;;;;;;9.25;4.15;;;18.40;99.90;;;;;;5071599;28;20391;-47
2022/07/31 03:42:14;;;;;;;7.55;3.78;;;;;;;;;;5071515;28;20038;-46
2022/07/31 03:44:40;;;;;;;8.38;4.65;;;18.10;99.90;;;;;;5071714;28;20086;-48
2022/07/31 03:47:07;;;;;;;7.63;4.40;;;18.20;99.90;;;;;;5071656;28;20056;-47
2022/07/31 03:49:32;;;;;;;9.32;4.47;;;18.50;99.90;;;;;;5071401;28;20028;-48
2022/07/31 03:51:58;;;;;;;7.75;4.03;;;18.80;99.90;;;;;;5071693;28;20043;-51
2022/07/31 03:54:24;;;;;;;8.18;4.30;;;18.50;99.90;;;;;;5071672;28;20452;-47
2022/07/31 03:56:53;;;;;;;6.68;4.05;;;18.50;99.90;;;;;;5071576;28;20028;-45
2022/07/31 03:59:20;;;;;;;7.38;3.78;;;17.70;99.90;;;;;;5071690;28;20446;-46
2022/07/31 04:01:46;;;;;;;8.27;3.60;;;19.40;99.90;;;;;;5071289;28;20025;-52
2022/07/31 04:04:12;;;;;;;7.10;3.85;;;18.20;99.90;;;;;;5071743;28;20028;-48
2022/07/31 04:06:39;;;;;;;8.80;4.28;;;17.90;99.90;;;;;;5071328;28;20017;-54
2022/07/31 04:09:05;;;;;;;8.25;4.18;;;18.90;99.90;;;;;;5071514;28;20047;-54
2022/07/31 04:11:31;;;;;;;8.25;4.10;;;18.90;99.90;;;;;;5071086;28;20103;-46
2022/07/31 04:13:57;;;;;;;7.85;3.80;;;17.80;99.90;;;;;;5071236;28;20135;-49
2022/07/31 04:16:22;;;;;;;11.23;4.18;;;18.30;99.90;;;;;;5071210;28;20047;-53
2022/07/31 04:18:48;;;;;;;7.75;3.92;;;19.00;99.90;;;;;;5071031;28;20035;-50
2022/07/31 04:21:14;;;;;;;10.05;4.47;;;19.20;99.90;;;;;;5070626;28;20514;-47
2022/07/31 04:23:40;;;;;;;5.78;3.28;;;19.30;99.90;;;;;;5071052;28;20040;-49
2022/07/31 04:26:06;;;;;;;5.72;3.47;;;;;;;;;;5071144;28;20032;-47
2022/07/31 04:28:32;;;;;;;8.30;3.30;;;19.50;99.90;;;;;;5071092;28;20063;-55
2022/07/31 04:30:58;;;;;;;9.55;3.63;;;17.30;99.90;;;;;;5070761;28;20043;-49
2022/07/31 04:33:24;;;;;;;6.45;3.05;;;16.90;99.90;;;;;;5070602;28;20025;-52
2022/07/31 04:35:51;;;;;;;10.40;3.25;;;19.50;99.90;;;;;;5070742;28;20476;-46
2022/07/31 04:38:17;;;;;;;5.95;3.05;;;17.00;99.90;;;;;;5070919;28;20446;-51
2022/07/31 04:40:43;;;;;;;9.10;3.67;;;19.90;99.90;;;;;;5070525;28;20505;-55
2022/07/31 04:43:09;;;;;;;7.20;3.20;;;19.60;99.90;;;;;;5070894;28;20041;-54
2022/07/31 04:45:34;;;;;;;8.18;3.28;;;19.10;99.90;;;;;;5070778;28;20517;-47
2022/07/31 04:48:00;;;;;;;8.00;3.00;;;19.20;99.90;;;;;;5070606;28;20020;-47
2022/07/31 04:50:26;;;;;;;9.10;3.42;;;19.60;99.90;;;;;;5070660;28;20020;-52
2022/07/31 04:52:52;;;;;;;7.85;2.95;;;19.90;99.90;;;;;;5070618;28;20116;-48
2022/07/31 04:55:17;;;;;;;9.70;3.30;;;18.60;99.90;;;;;;5070731;28;20113;-53
2022/07/31 04:57:43;;;;;;;6.25;2.65;;;19.00;99.90;;;;;;5070443;28;20040;-49
2022/07/31 05:00:10;;;;;;;7.53;3.05;;;19.10;99.90;;;;;;5070541;28;20025;-52
2022/07/31 05:02:36;;;;;;;5.15;2.90;;;19.20;99.90;;;;;;5070324;28;20078;-52
2022/07/31 05:05:02;;;;;;;6.65;2.80;;;17.90;99.90;;;;;;5070576;28;20021;-50
2022/07/31 05:07:28;;;;;;;5.53;2.95;;;18.90;99.90;;;;;;5070552;28;20025;-49
2022/07/31 05:09:54;;;;;;;6.22;3.00;;;;;;;;;;5070336;28;20031;-54
2022/07/31 05:12:19;;;;;;;6.80;2.47;;;18.00;99.90;;;;;;5070766;28;20025;-52
2022/07/31 05:14:45;;;;;;;4.78;2.58;;;20.90;99.90;;;;;;5070528;28;20024;-49
2022/07/31 05:17:11;;;;;;;8.40;3.08;;;;;;;;;;5070550;28;20028;-46
2022/07/31 05:19:37;;;;;;;5.50;2.40;;;;;;;;;;5070328;28;20036;-54
2022/07/31 05:22:03;;;;;;;4.95;2.85;;;18.90;99.90;;;;;;5070482;28;20044;-56
2022/07/31 05:24:29;;;;;;;5.43;2.78;;;20.10;99.90;;;;;;5069187;28;20024;-54
2022/07/31 05:26:55;;;;;;;8.25;3.20;;;18.80;99.90;;;;;;5070740;28;20024;-49
2022/07/31 05:29:21;;;;;;;5.70;2.92;;;21.00;99.90;;;;;;5070291;28;20411;-51
2022/07/31 05:31:46;;;;;;;6.32;2.63;;;20.20;99.90;;;;;;5070011;28;20040;-49
2022/07/31 05:34:12;;;;;;;5.53;2.70;;;19.70;99.90;;;;;;5070400;28;20020;-53
2022/07/31 05:36:38;;;;;;;6.43;3.30;;;21.00;99.90;;;;;;5070392;28;20073;-46
2022/07/31 05:39:04;;;;;;;8.00;3.00;;;17.90;99.90;;;;;;5070064;28;20375;-49
2022/07/31 05:41:32;;;;;;;5.25;2.88;;;19.60;99.90;;;;;;5070026;28;20036;-50
2022/07/31 05:43:58;;;;;;;7.65;3.05;;;19.30;99.90;;;;;;5070168;28;20039;-51
2022/07/31 05:46:24;;;;;;;10.55;3.00;;;;;;;;;;5073300;28;20016;-48
2022/07/31 05:48:50;;;;;;;6.82;2.95;;;;;;;;;;5074127;28;20089;-53
2022/07/31 05:51:15;;;;;;;8.02;3.40;;;21.00;99.90;;;;;;5073736;28;20020;-50
2022/07/31 05:53:41;;;;;;;6.65;3.30;;;19.70;99.90;;;;;;5073895;28;20593;-46
2022/07/31 05:56:07;;;;;;;7.95;3.35;;;18.80;99.90;;;;;;5074019;28;20024;-52
2022/07/31 05:58:33;;;;;;;6.07;3.55;;;20.10;99.90;;;;;;5073813;28;20364;-47
2022/07/31 06:01:00;;;;;;;7.68;3.13;;;20.00;99.90;;;;;;5073340;28;20020;-47
2022/07/31 06:03:26;;;;;;;5.97;3.33;;;19.50;99.90;;;;;;5073870;28;20029;-51
2022/07/31 06:05:52;;;;;;;7.53;3.40;;;19.00;99.90;;;;;;5073737;28;20040;-51
2022/07/31 06:08:19;;;;;;;6.00;3.47;;;17.80;99.90;;;;;;5073559;28;20053;-51
2022/07/31 06:10:44;;;;;;;9.35;3.60;;;20.40;99.90;;;;;;5073390;28;20017;-55
2022/07/31 06:13:11;;;;;;;7.97;3.55;;;20.40;99.90;;;;;;5073620;28;20449;-47
2022/07/31 06:15:37;;;;;;;9.60;4.15;;;17.70;99.90;;;;;;5067837;28;20024;-46
2022/07/31 06:18:03;;;;;;;5.45;3.05;;;21.60;99.90;;;;;;5063504;28;20048;-48
2022/07/31 06:20:29;;;;;;;8.02;3.78;;;20.80;99.90;;;;;;5058459;28;20028;-47
2022/07/31 06:22:55;;;;;;;6.70;3.45;;;;;;;;;;5072694;28;20039;-46
2022/07/31 06:25:21;;;;;;;7.18;3.67;;;21.10;99.90;;;;;;5071300;28;20027;-49
2022/07/31 06:27:47;;;;;;;5.95;3.33;;;20.80;99.90;;;;;;5072712;28;20017;-52
2022/07/31 06:30:13;;;;;;;6.30;3.08;;;18.20;99.90;;;;;;5071979;28;20050;-48
2022/07/31 06:32:39;;;;;;;5.60;2.78;;;;;;;;;;5072838;28;20111;-49
2022/07/31 06:35:05;;;;;;;6.15;3.10;;;21.80;99.90;;;;;;5073140;28;20479;-45
2022/07/31 06:37:31;;;;;;;4.80;2.95;;;23.00;99.90;;;;;;5072841;28;20032;-48
2022/07/31 06:39:57;;;;;;;5.45;2.92;;;21.90;99.90;;;;;;5072784;28;20029;-46
2022/07/31 06:42:24;;;;;;;6.65;2.90;;;22.40;99.90;;;;;;5072673;28;20036;-51
2022/07/31 06:44:50;;;;;;;5.15;2.58;;;22.40;99.30;;;;;;5073103;28;20025;-56
2022/07/31 06:47:18;;;;;;;6.72;2.60;;;22.20;98.90;;;;;;5072967;28;20064;-46
2022/07/31 06:49:44;;;;;;;6.05;2.97;;;23.00;99.20;;;;;;5072431;28;20551;-51
2022/07/31 06:52:09;;;;;;;4.85;2.75;;;22.90;98.30;;;;;;5072635;28;20157;-54
2022/07/31 06:54:36;;;;;;;4.53;2.30;;;;;;;;;;5070850;28;20394;-51
2022/07/31 06:57:02;;;;;;;4.97;2.85;;;22.10;98.60;;;;;;5068174;28;20073;-48
2022/07/31 06:59:28;;;;;;;7.53;2.85;;;22.20;99.10;;;;;;5072413;28;20020;-53
2022/07/31 07:01:54;;;;;;;7.57;3.40;;;22.00;99.30;;;;;;5072485;28;20388;-47
2022/07/31 07:04:19;;;;;;;5.25;2.95;;;22.80;99.90;;;;;;5071785;28;20020;-48
2022/07/31 07:06:45;;;;;;;6.25;3.15;;;23.30;97.60;;;;;;5070336;28;20056;-49
2022/07/31 07:09:11;;;;;;;5.03;2.92;;;23.40;97.50;;;;;;5057453;28;20025;-49
2022/07/31 07:11:36;;;;;;;4.57;2.50;;;23.10;96.60;;;;;;5056721;28;20028;-53
2022/07/31 07:14:02;;;;;;;7.72;2.90;;;23.30;96.80;;;;;;5069444;28;20024;-51
2022/07/31 07:16:28;;;;;;;6.65;3.42;;;22.20;97.40;;;;;;5070688;28;20019;-51
2022/07/31 07:18:53;;;;;;;6.82;2.80;;;22.80;98.10;;;;;;5070298;28;20025;-54
2022/07/31 07:21:19;;;;;;;5.20;3.28;;;22.70;98.50;;;;;;5071289;28;20071;-51
2022/07/31 07:23:45;;;;;;;4.88;2.67;;;;;;;;;;5072061;28;20032;-49
2022/07/31 07:26:11;;;;;;;4.40;2.35;;;22.60;98.30;;;;;;5072234;28;20063;-48
2022/07/31 07:28:37;;;;;;;8.10;2.85;;;22.70;98.30;;;;;;5071997;28;20037;-49
2022/07/31 07:31:04;;;;;;;7.47;3.00;;;21.70;97.70;;;;;;5065787;28;20033;-49
2022/07/31 07:33:30;;;;;;;7.22;3.10;;;22.30;97.50;;;;;;5052022;28;20109;-46
2022/07/31 07:35:56;;;;;;;7.35;2.83;;;21.70;97.70;;;;;;5069253;28;20527;-48
2022/07/31 07:38:22;;;;;;;6.47;2.75;;;22.20;97.80;;;;;;5069660;28;20439;-45
2022/07/31 07:40:48;;;;;;;5.75;2.95;;;22.50;98.60;;;;;;5069601;28;20040;-51
2022/07/31 07:43:14;;;;;;;6.00;2.80;;;22.00;98.80;;;;;;5069513;28;20086;-49
2022/07/31 07:45:40;;;;;;;5.18;2.70;;;22.20;99.20;;;;;;5069598;28;20074;-49
2022/07/31 07:48:05;;;;;;;5.57;2.92;;;22.30;99.00;;;;;;5070992;28;20487;-49
2022/07/31 07:50:31;;;;;;;10.60;3.10;;;22.40;99.00;;;;;;5070669;28;20016;-52
2022/07/31 07:52:57;;;;;;;8.15;3.15;;;21.00;98.90;;;;;;5071168;28;20025;-50
2022/07/31 07:55:23;;;;;;;9.82;3.33;;;21.20;99.30;;;;;;5071790;28;20037;-47
2022/07/31 07:57:49;;;;;;;8.00;3.22;;;22.90;99.90;;;;;;5070839;28;20480;-48
2022/07/31 08:00:15;;;;;;;9.15;3.08;;;22.00;99.90;;;;;;5070809;28;20039;-46
2022/07/31 08:02:43;;;;;;;6.05;3.03;;;22.10;99.90;;;;;;5064770;28;20024;-49
2022/07/31 08:05:09;;;;;;;6.05;2.92;;;23.10;99.90;;;;;;5070198;28;20487;-48
2022/07/31 08:07:37;;;;;;;7.50;2.90;;;20.80;99.20;;;;;;5069907;28;20483;-45
2022/07/31 08:10:05;;;;;;;8.30;3.42;;;22.30;99.90;;;;;;5070303;28;20400;-49
2022/07/31 08:12:31;;;;;;;7.18;3.03;;;22.20;99.90;;;;;;5071219;28;20513;-48
2022/07/31 08:14:56;;;;;;;9.52;3.33;;;21.90;99.60;;;;;;5070899;28;20055;-51
2022/07/31 08:17:22;;;;;;;9.00;3.40;;;;;;;;;;5071131;28;20414;-49
2022/07/31 08:19:48;;;;;;;6.07;2.80;;;23.00;98.30;;;;;;5070762;28;20021;-54
2022/07/31 08:22:14;;;;;;;7.55;2.90;;;22.90;95.90;;;;;;5070186;28;20036;-49
2022/07/31 08:24:40;;;;;;;7.13;3.25;;;24.10;95.10;;;;;;5070653;28;20021;-53
2022/07/31 08:27:24;;;;;;;7.18;3.10;;;21.80;93.70;;;;;;5070311;28;20443;-55
2022/07/31 08:29:54;;;;;;;6.28;2.85;;;24.60;94.30;;;;;;5059890;28;20120;-46
2022/07/31 08:32:20;;;;;;;7.20;3.00;;;24.70;93.70;;;;;;5070763;28;20135;-56
2022/07/31 08:34:46;;;;;;;6.60;2.53;;;25.00;93.70;;;;;;5071048;28;20020;-46
2022/07/31 08:37:12;;;;;;;5.45;2.50;;;25.10;93.30;;;;;;5070922;28;20078;-52
2022/07/31 08:39:38;;;;;;;9.25;2.70;;;24.70;92.80;;;;;;5070838;28;20505;-49
2022/07/31 08:42:06;;;;;;;5.22;2.40;;;24.40;93.60;;;;;;5071022;28;20040;-48
2022/07/31 08:44:34;;;;;;;6.25;2.78;;;24.30;94.10;;;;;;5070636;28;20020;-52
2022/07/31 08:47:01;;;;;;;6.80;2.90;;;24.50;94.20;;;;;;5070863;28;20028;-46
2022/07/31 08:49:29;;;;;;;7.15;2.40;;;24.50;93.50;;;;;;5069509;28;20024;-54
2022/07/31 08:51:58;;;;;;;3.80;1.95;;;24.40;93.60;;;;;;5070768;28;20036;-45
2022/07/31 08:54:25;;;;;;;7.93;2.70;;;24.20;93.10;;;;;;5070597;28;20021;-45
2022/07/31 08:56:51;;;;;;;5.93;2.45;;;23.80;93.70;;;;;;5070630;28;20032;-45
2022/07/31 08:59:18;;;;;;;8.35;2.20;;;23.80;94.10;;;;;;5070644;28;20067;-48
2022/07/31 09:01:44;;;;;;;4.70;2.03;;;23.80;94.40;;;;;;5070655;28;20031;-47
2022/07/31 09:04:11;;;;;;;4.90;2.00;;;23.60;94.40;;;;;;5070689;28;20025;-54
2022/07/31 09:06:37;;;;;;;4.28;1.90;;;23.60;94.40;;;;;;5070593;28;20017;-50
2022/07/31 09:09:04;;;;;;;4.30;1.92;;;23.30;94.60;;;;;;5070614;28;20024;-48
2022/07/31 09:11:30;;;;;;;4.97;2.60;;;23.10;95.30;;;;;;5070414;28;20056;-49
2022/07/31 09:14:01;;;;;;;5.18;2.10;;;22.10;95.00;;;;;;5070596;28;20024;-48
2022/07/31 09:16:28;;;;;;;3.90;2.40;;;22.80;95.50;;;;;;5070518;28;20032;-54
2022/07/31 09:18:59;;;;;;;4.30;1.95;;;23.00;95.50;;;;;;5070190;28;20055;-50
2022/07/31 09:21:25;;;;;;;4.90;2.30;;;22.50;95.50;;;;;;5073736;28;20036;-44
2022/07/31 09:23:53;;;;;;;5.07;2.20;;;22.50;95.90;;;;;;5074243;28;20729;-46
2022/07/31 09:26:19;;;;;;;4.75;2.20;;;22.60;95.80;;;;;;5074297;28;20162;-46
2022/07/31 09:28:52;;;;;;;5.10;2.10;;;22.70;95.70;;;;;;5074382;28;20119;-45
2022/07/31 09:31:19;;;;;;;5.05;2.15;;;23.60;95.40;;;;;;5073827;28;20040;-50
2022/07/31 09:33:45;;;;;;;3.50;2.05;;;23.00;95.50;;;;;;5074308;28;20483;-46
2022/07/31 09:36:13;;;;;;;3.05;1.83;;;23.00;95.40;;;;;;5074349;28;20101;-46
2022/07/31 09:38:41;;;;;;;3.97;2.38;;;22.80;95.50;;;;;;5074275;28;20133;-53
2022/07/31 09:41:18;;;;;;;7.97;2.70;;;23.10;95.40;;;;;;5072928;28;20012;-47
2022/07/31 09:44:04;;;;;;;3.72;2.28;;;22.80;95.70;;;;;;5074300;28;20028;-50
2022/07/31 09:46:45;;;;;;;5.30;2.70;;;23.60;95.10;;;;;;5073710;28;20025;-47
2022/07/31 09:49:11;;;;;;;6.70;3.20;;;23.20;94.10;;;;;;5066283;28;20028;-48
2022/07/31 09:51:39;;;;;;;5.65;2.95;;;23.50;94.80;;;;;;5073395;28;20020;-47
2022/07/31 09:54:06;;;;;;;6.38;2.70;;;23.20;95.10;;;;;;5073395;28;20021;-52
2022/07/31 09:56:32;;;;;;;5.07;2.38;;;23.30;95.40;;;;;;5073400;28;20020;-49
2022/07/31 09:58:59;;;;;;;7.60;2.55;;;23.50;94.90;;;;;;5073305;28;20148;-48
2022/07/31 10:01:25;;;;;;;10.05;2.63;;;23.60;94.80;;;;;;5072840;28;20032;-56
2022/07/31 10:03:53;;;;;;;8.25;2.60;;;23.60;94.60;;;;;;5073016;28;20514;-47
2022/07/31 10:06:19;;;;;;;5.75;2.60;;;23.90;95.00;;;;;;5073337;28;20111;-47
2022/07/31 10:08:45;;;;;;;7.53;3.10;;;24.10;94.20;;;;;;5073042;28;20119;-49
2022/07/31 10:11:13;;;;;;;7.05;2.50;;;24.20;94.20;;;;;;5073240;28;20017;-50
2022/07/31 10:13:46;;;;;;;8.40;3.28;;;24.60;93.80;;;;;;5073631;28;20395;-46
2022/07/31 10:16:13;;;;;;;5.50;2.67;;;24.60;93.40;;;;;;5073570;28;20025;-56
2022/07/31 10:18:45;;;;;;;6.93;3.08;;;24.80;93.50;;;;;;5073376;28;20028;-51
2022/07/31 10:21:15;;;;;;;6.18;3.10;;;25.40;93.10;;;;;;5073257;28;20028;-49
2022/07/31 10:23:44;;;;;;;7.50;3.03;;;25.80;92.10;;;;;;5073306;28;20028;-54
2022/07/31 10:26:10;;;;;;;8.57;3.13;;;25.40;91.80;;;;;;5073299;28;20401;-46
2022/07/31 10:28:36;;;;;;;6.18;2.53;;;25.50;91.70;;;;;;5073334;28;20078;-53
2022/07/31 10:31:03;;;;;;;4.60;2.30;;;25.30;92.20;;;;;;5072728;28;20056;-52
2022/07/31 10:33:29;;;;;;;6.28;2.75;;;25.10;92.00;;;;;;5072560;28;20024;-49
2022/07/31 10:36:20;;;;;;;9.98;2.30;;;25.10;92.20;;;;;;5073184;28;20123;-50
2022/07/31 10:39:07;;;;;;;8.30;2.30;;;25.00;92.50;;;;;;5073256;28;20013;-54
2022/07/31 10:41:35;;;;;;;6.68;2.80;;;24.80;92.60;;;;;;5072699;28;20029;-51
2022/07/31 10:44:34;;;;;;;5.53;2.53;;;24.80;92.70;;;;;;5072368;28;20028;-51
2022/07/31 10:47:17;;;;;;;7.35;2.97;;;24.50;93.20;;;;;;5073219;28;20060;-54
2022/07/31 10:49:45;;;;;;;7.05;2.60;;;24.30;93.80;;;;;;5072553;28;20028;-52
2022/07/31 10:52:11;;;;;;;9.40;3.22;;;24.10;94.00;;;;;;5073188;28;20154;-47
2022/07/31 10:54:44;;;;;;;7.78;2.92;;;23.30;94.50;;;;;;5072698;28;20472;-46
2022/07/31 10:57:21;;;;;;;8.38;2.65;;;23.90;95.10;;;;;;5071137;28;20024;-47
2022/07/31 10:59:47;;;;;;;8.32;3.10;;;23.90;94.40;;;;;;5067378;28;20013;-50
2022/07/31 11:02:13;;;;;;;8.27;3.22;;;24.00;94.60;;;;;;5070526;28;20490;-49
2022/07/31 11:04:39;;;;;;;7.75;2.63;;;24.00;94.50;;;;;;5069380;28;20036;-51
2022/07/31 11:07:18;;;;;;;6.32;2.90;;;24.10;94.50;;;;;;5065273;28;20016;-51
2022/07/31 11:09:44;;;;;;;7.75;3.03;;;24.10;94.00;;;;;;5069814;28;20029;-47
2022/07/31 11:12:19;;;;;;;8.18;3.05;;;24.10;94.10;;;;;;5072554;28;20039;-52
2022/07/31 11:14:45;;;;;;;6.80;2.92;;;24.10;94.50;;;;;;5066824;28;20036;-56
2022/07/31 11:17:11;;;;;;;5.95;3.00;;;24.40;94.60;;;;;;5066256;28;20020;-46
2022/07/31 11:19:39;;;;;;;9.55;3.92;;;24.40;93.70;;;;;;5071556;28;20037;-47
2022/07/31 11:22:12;;;;;;;9.02;3.22;;;25.00;94.60;;;;;;5070759;28;20099;-49
2022/07/31 11:24:38;;;;;;;6.05;3.03;;;24.10;94.60;;;;;;5066683;28;20035;-53
2022/07/31 11:27:04;;;;;;;9.32;3.17;;;24.10;94.90;;;;;;5069290;28;20021;-52
2022/07/31 11:29:33;;;;;;;7.75;3.05;;;25.20;95.20;;;;;;5070075;28;20031;-49
2022/07/31 11:32:04;;;;;;;9.07;3.83;;;23.80;95.10;;;;;;5070490;28;20041;-47
2022/07/31 11:34:52;;;;;;;10.27;3.80;;;22.50;95.20;;;;;;5067502;28;20032;-49
2022/07/31 11:37:25;;;;;;;8.68;3.22;;;23.70;95.50;;;;;;5068439;28;20036;-58
2022/07/31 11:39:52;;;;;;;8.00;2.90;;;23.80;95.70;;;;;;5068105;28;20052;-50
2022/07/31 11:42:20;;;;;;;7.97;3.40;;;24.90;95.40;;;;;;5066036;28;20040;-47
2022/07/31 11:44:45;;;;;;;10.25;3.50;;;24.00;95.20;;;;;;5070070;28;20076;-50
2022/07/31 11:47:11;;;;;;;9.88;3.38;;;23.80;95.30;;;;;;5070349;28;20028;-47
2022/07/31 11:49:37;;;;;;;11.45;3.92;;;23.80;95.70;;;;;;5069874;28;20016;-47
2022/07/31 11:52:06;;;;;;;10.98;3.88;;;23.50;95.90;;;;;;5070351;28;20047;-48
2022/07/31 11:54:32;;;;;;;;;;;23.30;96.30;;;;;;5070901;28;20033;-50
2022/07/31 11:56:58;;;;;;;8.52;3.72;;;24.00;96.90;;;;;;5070502;28;20287;-51
2022/07/31 11:59:32;;;;;;;13.60;4.25;;;23.20;96.90;;;;;;5070279;28;20019;-47
2022/07/31 12:02:09;;;;;;;11.77;3.58;;;23.30;97.20;;;;;;5068758;28;20051;-49
2022/07/31 12:04:36;;;;;;;7.93;3.38;;;21.20;96.40;;;;;;5067580;28;20028;-48
2022/07/31 12:07:06;;;;;;;12.68;4.60;;;23.20;97.00;;;;;;5066801;28;20099;-51
2022/07/31 12:09:33;;;;;;;8.60;3.60;;;22.90;96.80;;;;;;5069028;28;20024;-49
2022/07/31 12:11:59;;;;;;;9.00;3.65;;;23.20;97.10;;;;;;5069798;28;20052;-46
2022/07/31 12:14:28;;;;;;;10.23;3.95;;;23.10;97.30;;;;;;5068277;28;20051;-45
2022/07/31 12:16:54;;;;;;;8.07;4.15;;;21.60;97.00;;;;;;5068274;28;20443;-45
2022/07/31 12:19:31;;;;;;;12.10;3.90;;;23.30;97.20;;;;;;5064638;28;20032;-44
2022/07/31 12:21:58;;;;;;;9.23;3.60;;;23.30;97.20;;;;;;5069861;28;20059;-50
2022/07/31 12:24:25;;;;;;;13.63;4.30;;;23.50;97.10;;;;;;5069700;28;20487;-45
2022/07/31 12:26:52;;;;;;;9.90;4.00;;;24.10;97.00;;;;;;5070256;28;20029;-51
2022/07/31 12:29:18;;;;;;;9.90;3.75;;;23.60;97.20;;;;;;5069781;28;20108;-48
2022/07/31 12:31:47;;;;;;;9.30;3.83;;;23.70;96.70;;;;;;5069075;28;20484;-47
2022/07/31 12:34:32;;;;;;;8.73;3.65;;;23.80;96.40;;;;;;5070211;28;20109;-45
2022/07/31 12:37:01;;;;;;;10.02;3.90;;;22.50;95.80;;;;;;5057372;28;20033;-44
2022/07/31 12:39:28;;;;;;;9.68;3.60;;;24.00;96.20;;;;;;5069545;28;20044;-44
2022/07/31 12:41:53;;;;;;;9.35;3.70;;;24.00;96.70;;;;;;5070176;28;20032;-44
2022/07/31 12:44:19;;;;;;;11.55;3.88;;;24.20;96.40;;;;;;5068477;28;20037;-44
2022/07/31 12:46:45;;;;;;;8.82;3.30;;;24.40;95.40;;;;;;5067350;28;20484;-52
2022/07/31 12:49:12;;;;;;;7.72;3.47;;;24.40;95.60;;;;;;5055670;28;20082;-46
2022/07/31 12:51:38;;;;;;;11.70;4.60;;;24.60;95.20;;;;;;5057263;28;20089;-47